sensor_id;sensor_type;location;lat;lon;timestamp;pressure;altitude;pressure_sealevel;temperature;humidity
79127;BME280;68528;48.814;8.904;2023-08-06T00:00:05;95693.50;;;11.38;100.00
79127;BME280;68528;48.814;8.904;2023-08-06T00:02:30;95697.34;;;11.27;100.00
79127;BME280;68528;48.814;8.904;2023-08-06T00:04:56;95695.81;;;11.29;100.00
79127;BME280;68528;48.814;8.904;2023-08-06T00:07:21;95696.59;;;11.30;100.00
79127;BME280;68528;48.814;8.904;2023-08-06T00:09:47;95696.19;;;11.28;100.00
79127;BME280;68528;48.814;8.904;2023-08-06T00:12:13;95691.91;;;11.34;100.00
79127;BME280;68528;48.814;8.904;2023-08-06T00:14:41;95689.56;;;11.43;100.00
79127;BME280;68528;48.814;8.904;2023-08-06T00:17:10;95684.50;;;11.38;100.00
79127;BME280;68528;48.814;8.904;2023-08-06T00:19:37;95688.75;;;11.25;100.00
79127;BME280;68528;48.814;8.904;2023-08-06T00:22:03;95676.59;;;11.26;100.00
79127;BME280;68528;48.814;8.904;2023-08-06T00:24:29;95680.13;;;11.19;100.00
79127;BME280;68528;48.814;8.904;2023-08-06T00:26:54;95683.22;;;11.11;100.00
79127;BME280;68528;48.814;8.904;2023-08-06T00:29:19;95673.41;;;11.10;100.00
79127;BME280;68528;48.814;8.904;2023-08-06T00:31:49;95677.69;;;11.07;100.00
79127;BME280;68528;48.814;8.904;2023-08-06T00:34:16;95682.41;;;11.07;100.00
79127;BME280;68528;48.814;8.904;2023-08-06T00:36:44;95679.28;;;11.12;100.00
79127;BME280;68528;48.814;8.904;2023-08-06T00:39:11;95673.41;;;11.10;100.00
79127;BME280;68528;48.814;8.904;2023-08-06T00:41:37;95673.00;;;11.04;100.00
79127;BME280;68528;48.814;8.904;2023-08-06T00:44:03;95660.84;;;10.98;100.00
79127;BME280;68528;48.814;8.904;2023-08-06T00:46:29;95647.09;;;10.87;100.00
79127;BME280;68528;48.814;8.904;2023-08-06T00:48:58;95653.72;;;10.86;100.00
79127;BME280;68528;48.814;8.904;2023-08-06T00:51:24;95656.44;;;10.83;100.00
79127;BME280;68528;48.814;8.904;2023-08-06T00:53:53;95651.78;;;10.90;100.00
79127;BME280;68528;48.814;8.904;2023-08-06T00:56:20;95634.94;;;10.88;100.00
79127;BME280;68528;48.814;8.904;2023-08-06T00:58:46;95624.03;;;10.95;100.00
79127;BME280;68528;48.814;8.904;2023-08-06T01:01:11;95635.34;;;10.94;100.00
79127;BME280;68528;48.814;8.904;2023-08-06T01:03:37;95619.72;;;10.91;100.00
79127;BME280;68528;48.814;8.904;2023-08-06T01:06:02;95626.75;;;10.92;100.00
79127;BME280;68528;48.814;8.904;2023-08-06T01:08:55;95615.78;;;10.85;100.00
79127;BME280;68528;48.814;8.904;2023-08-06T01:11:33;95627.47;;;10.75;100.00
79127;BME280;68528;48.814;8.904;2023-08-06T01:17:14;95628.16;;;10.61;100.00
79127;BME280;68528;48.814;8.904;2023-08-06T01:19:40;95635.19;;;10.62;100.00
79127;BME280;68528;48.814;8.904;2023-08-06T01:22:05;95627.75;;;10.59;100.00
79127;BME280;68528;48.814;8.904;2023-08-06T01:24:39;95620.34;;;10.63;100.00
79127;BME280;68528;48.814;8.904;2023-08-06T01:27:14;95634.38;;;10.58;100.00
79127;BME280;68528;48.814;8.904;2023-08-06T01:29:48;95627.72;;;10.52;100.00
79127;BME280;68528;48.814;8.904;2023-08-06T01:32:18;95612.88;;;10.53;100.00
79127;BME280;68528;48.814;8.904;2023-08-06T01:34:47;95618.75;;;10.59;100.00
79127;BME280;68528;48.814;8.904;2023-08-06T01:37:14;95615.63;;;10.57;100.00
79127;BME280;68528;48.814;8.904;2023-08-06T01:39:42;95621.91;;;10.61;100.00
79127;BME280;68528;48.814;8.904;2023-08-06T01:42:37;95622.28;;;10.59;100.00
79127;BME280;68528;48.814;8.904;2023-08-06T01:45:03;95633.63;;;10.58;100.00
79127;BME280;68528;48.814;8.904;2023-08-06T01:47:31;95617.94;;;10.51;100.00
79127;BME280;68528;48.814;8.904;2023-08-06T01:49:56;95624.16;;;10.48;100.00
79127;BME280;68528;48.814;8.904;2023-08-06T01:52:23;95618.31;;;10.50;100.00
79127;BME280;68528;48.814;8.904;2023-08-06T01:54:48;95613.16;;;10.41;100.00
79127;BME280;68528;48.814;8.904;2023-08-06T01:57:14;95608.16;;;10.50;100.00
79127;BME280;68528;48.814;8.904;2023-08-06T01:59:39;95603.81;;;10.42;100.00
79127;BME280;68528;48.814;8.904;2023-08-06T02:02:10;95605.75;;;10.42;100.00
79127;BME280;68528;48.814;8.904;2023-08-06T02:04:39;95604.19;;;10.44;100.00
79127;BME280;68528;48.814;8.904;2023-08-06T02:07:04;95592.09;;;10.45;100.00
79127;BME280;68528;48.814;8.904;2023-08-06T02:09:30;95583.44;;;10.36;100.00
79127;BME280;68528;48.814;8.904;2023-08-06T02:11:55;95587.44;;;10.49;100.00
79127;BME280;68528;48.814;8.904;2023-08-06T02:14:21;95583.09;;;10.48;100.00
79127;BME280;68528;48.814;8.904;2023-08-06T02:16:48;95572.16;;;10.45;100.00
79127;BME280;68528;48.814;8.904;2023-08-06T02:19:14;95574.53;;;10.53;100.00
79127;BME280;68528;48.814;8.904;2023-08-06T02:21:40;95574.16;;;10.51;100.00
79127;BME280;68528;48.814;8.904;2023-08-06T02:24:07;95561.66;;;10.54;100.00
79127;BME280;68528;48.814;8.904;2023-08-06T02:26:35;95564.72;;;10.45;100.00
79127;BME280;68528;48.814;8.904;2023-08-06T02:29:00;95556.53;;;10.52;100.00
79127;BME280;68528;48.814;8.904;2023-08-06T02:31:25;95554.59;;;10.56;100.00
79127;BME280;68528;48.814;8.904;2023-08-06T02:33:51;95553.06;;;10.62;100.00
79127;BME280;68528;48.814;8.904;2023-08-06T02:36:17;95552.28;;;10.62;100.00
79127;BME280;68528;48.814;8.904;2023-08-06T02:38:46;95555.03;;;10.65;100.00
79127;BME280;68528;48.814;8.904;2023-08-06T02:41:14;95546.81;;;10.65;100.00
79127;BME280;68528;48.814;8.904;2023-08-06T02:43:41;95540.19;;;10.70;100.00
79127;BME280;68528;48.814;8.904;2023-08-06T02:46:06;95540.66;;;10.89;100.00
79127;BME280;68528;48.814;8.904;2023-08-06T02:48:32;95535.19;;;10.93;100.00
79127;BME280;68528;48.814;8.904;2023-08-06T02:50:58;95539.47;;;10.90;100.00
79127;BME280;68528;48.814;8.904;2023-08-06T02:53:27;95527.34;;;10.84;100.00
79127;BME280;68528;48.814;8.904;2023-08-06T02:55:52;95530.06;;;10.84;100.00
79127;BME280;68528;48.814;8.904;2023-08-06T03:03:24;95519.56;;;11.07;100.00
79127;BME280;68528;48.814;8.904;2023-08-06T03:06:10;95518.41;;;11.09;100.00
79127;BME280;68528;48.814;8.904;2023-08-06T03:08:35;95519.56;;;11.11;100.00
79127;BME280;68528;48.814;8.904;2023-08-06T03:11:02;95522.31;;;11.11;100.00
79127;BME280;68528;48.814;8.904;2023-08-06T03:13:31;95524.28;;;11.11;100.00
79127;BME280;68528;48.814;8.904;2023-08-06T03:15:59;95528.19;;;11.10;100.00
79127;BME280;68528;48.814;8.904;2023-08-06T03:18:46;95527.41;;;11.13;100.00
79127;BME280;68528;48.814;8.904;2023-08-06T03:21:14;95527.03;;;11.14;100.00
79127;BME280;68528;48.814;8.904;2023-08-06T03:23:40;95526.66;;;11.19;100.00
79127;BME280;68528;48.814;8.904;2023-08-06T03:26:05;95523.13;;;11.22;100.00
79127;BME280;68528;48.814;8.904;2023-08-06T03:28:30;95525.84;;;11.19;100.00
79127;BME280;68528;48.814;8.904;2023-08-06T03:31:03;95531.31;;;11.08;100.00
79127;BME280;68528;48.814;8.904;2023-08-06T03:33:51;95530.91;;;11.10;100.00
79127;BME280;68528;48.814;8.904;2023-08-06T03:36:21;95528.56;;;11.12;100.00
79127;BME280;68528;48.814;8.904;2023-08-06T03:38:47;95525.06;;;11.22;100.00
79127;BME280;68528;48.814;8.904;2023-08-06T03:41:12;95527.41;;;11.20;100.00
79127;BME280;68528;48.814;8.904;2023-08-06T03:43:38;95532.16;;;11.30;100.00
79127;BME280;68528;48.814;8.904;2023-08-06T03:46:03;95532.16;;;11.33;100.00
79127;BME280;68528;48.814;8.904;2023-08-06T03:48:29;95526.66;;;11.33;100.00
79127;BME280;68528;48.814;8.904;2023-08-06T03:50:54;95526.25;;;11.35;100.00
79127;BME280;68528;48.814;8.904;2023-08-06T03:53:20;95536.06;;;11.43;100.00
79127;BME280;68528;48.814;8.904;2023-08-06T03:55:50;95532.94;;;11.41;100.00
79127;BME280;68528;48.814;8.904;2023-08-06T03:58:15;95529.81;;;11.42;100.00
79127;BME280;68528;48.814;8.904;2023-08-06T04:00:41;95543.91;;;11.48;100.00
79127;BME280;68528;48.814;8.904;2023-08-06T04:03:06;95533.72;;;11.45;100.00
79127;BME280;68528;48.814;8.904;2023-08-06T04:05:31;95537.25;;;11.56;100.00
79127;BME280;68528;48.814;8.904;2023-08-06T04:07:57;95547.06;;;11.60;100.00
79127;BME280;68528;48.814;8.904;2023-08-06T04:10:24;95540.41;;;11.61;100.00
79127;BME280;68528;48.814;8.904;2023-08-06T04:13:01;95548.63;;;11.65;100.00
79127;BME280;68528;48.814;8.904;2023-08-06T04:15:26;95536.09;;;11.57;100.00
79127;BME280;68528;48.814;8.904;2023-08-06T04:17:52;95537.66;;;11.61;100.00
79127;BME280;68528;48.814;8.904;2023-08-06T04:20:18;95535.72;;;11.76;100.00
79127;BME280;68528;48.814;8.904;2023-08-06T04:22:48;95536.88;;;11.68;100.00
79127;BME280;68528;48.814;8.904;2023-08-06T04:25:36;95527.47;;;11.55;100.00
79127;BME280;68528;48.814;8.904;2023-08-06T04:28:14;95543.13;;;11.58;100.00
79127;BME280;68528;48.814;8.904;2023-08-06T04:30:40;95536.09;;;11.57;100.00
79127;BME280;68528;48.814;8.904;2023-08-06T04:33:07;95537.66;;;11.51;100.00
79127;BME280;68528;48.814;8.904;2023-08-06T04:35:33;95541.97;;;11.48;100.00
79127;BME280;68528;48.814;8.904;2023-08-06T04:37:58;95541.53;;;11.43;100.00
79127;BME280;68528;48.814;8.904;2023-08-06T04:40:28;95547.03;;;11.50;100.00
79127;BME280;68528;48.814;8.904;2023-08-06T04:42:53;95547.81;;;11.54;100.00
79127;BME280;68528;48.814;8.904;2023-08-06T04:45:18;95545.50;;;11.59;100.00
79127;BME280;68528;48.814;8.904;2023-08-06T04:47:50;95536.09;;;11.60;99.96
79127;BME280;68528;48.814;8.904;2023-08-06T04:50:24;95546.28;;;11.53;99.47
79127;BME280;68528;48.814;8.904;2023-08-06T04:52:50;95545.88;;;11.51;100.00
79127;BME280;68528;48.814;8.904;2023-08-06T04:55:16;95534.13;;;11.40;100.00
79127;BME280;68528;48.814;8.904;2023-08-06T04:57:41;95532.94;;;11.44;100.00
79127;BME280;68528;48.814;8.904;2023-08-06T05:00:07;95535.69;;;11.48;100.00
79127;BME280;68528;48.814;8.904;2023-08-06T05:02:33;95537.63;;;11.47;100.00
79127;BME280;68528;48.814;8.904;2023-08-06T05:05:19;95544.31;;;11.57;100.00
79127;BME280;68528;48.814;8.904;2023-08-06T05:07:48;95541.59;;;11.74;100.00
79127;BME280;68528;48.814;8.904;2023-08-06T05:10:38;95534.53;;;11.98;100.00
79127;BME280;68528;48.814;8.904;2023-08-06T05:13:07;95531.38;;;12.07;100.00
79127;BME280;68528;48.814;8.904;2023-08-06T05:15:32;95538.03;;;12.20;100.00
79127;BME280;68528;48.814;8.904;2023-08-06T05:17:58;95534.47;;;12.23;99.22
79127;BME280;68528;48.814;8.904;2023-08-06T05:20:23;95543.53;;;12.27;99.68
79127;BME280;68528;48.814;8.904;2023-08-06T05:22:49;95535.69;;;12.18;99.04
79127;BME280;68528;48.814;8.904;2023-08-06T05:25:22;95538.81;;;12.31;98.81
79127;BME280;68528;48.814;8.904;2023-08-06T05:27:57;95539.53;;;12.45;99.20
79127;BME280;68528;48.814;8.904;2023-08-06T05:30:22;95528.91;;;12.54;99.05
79127;BME280;68528;48.814;8.904;2023-08-06T05:32:48;95539.84;;;12.72;97.91
79127;BME280;68528;48.814;8.904;2023-08-06T05:35:14;95541.03;;;12.68;98.87
79127;BME280;68528;48.814;8.904;2023-08-06T05:37:39;95548.13;;;12.54;98.72
79127;BME280;68528;48.814;8.904;2023-08-06T05:40:05;95548.56;;;12.49;99.14
79127;BME280;68528;48.814;8.904;2023-08-06T05:42:30;95548.53;;;12.56;98.55
79127;BME280;68528;48.814;8.904;2023-08-06T05:45:45;95559.50;;;12.63;98.89
79127;BME280;68528;48.814;8.904;2023-08-06T05:48:53;95534.41;;;12.51;98.90
79127;BME280;68528;48.814;8.904;2023-08-06T05:51:22;95552.09;;;12.50;98.45
79127;BME280;68528;48.814;8.904;2023-08-06T05:57:16;95559.16;;;12.47;100.00
79127;BME280;68528;48.814;8.904;2023-08-06T05:59:51;95545.38;;;12.54;98.62
79127;BME280;68528;48.814;8.904;2023-08-06T06:02:25;95563.06;;;12.46;100.00
79127;BME280;68528;48.814;8.904;2023-08-06T06:08:01;95551.69;;;12.44;100.00
79127;BME280;68528;48.814;8.904;2023-08-06T06:10:27;95548.53;;;12.53;100.00
79127;BME280;68528;48.814;8.904;2023-08-06T06:13:14;95537.56;;;12.56;100.00
79127;BME280;68528;48.814;8.904;2023-08-06T06:15:42;95549.31;;;12.60;100.00
79127;BME280;68528;48.814;8.904;2023-08-06T06:18:08;95567.34;;;12.54;100.00
79127;BME280;68528;48.814;8.904;2023-08-06T06:20:35;95571.72;;;12.38;100.00
79127;BME280;68528;48.814;8.904;2023-08-06T06:23:03;95566.63;;;12.29;100.00
79127;BME280;68528;48.814;8.904;2023-08-06T06:25:30;95571.75;;;12.31;100.00
79127;BME280;68528;48.814;8.904;2023-08-06T06:27:56;95586.22;;;12.45;100.00
79127;BME280;68528;48.814;8.904;2023-08-06T06:30:23;95582.31;;;12.50;100.00
79127;BME280;68528;48.814;8.904;2023-08-06T06:32:49;95574.03;;;12.60;100.00
79127;BME280;68528;48.814;8.904;2023-08-06T06:35:14;95584.22;;;12.63;100.00
79127;BME280;68528;48.814;8.904;2023-08-06T06:37:40;95581.06;;;12.61;100.00
79127;BME280;68528;48.814;8.904;2023-08-06T06:40:07;95582.28;;;12.53;100.00
79127;BME280;68528;48.814;8.904;2023-08-06T06:42:38;95590.91;;;12.48;100.00
79127;BME280;68528;48.814;8.904;2023-08-06T06:45:06;95591.34;;;12.36;100.00
79127;BME280;68528;48.814;8.904;2023-08-06T06:47:32;95591.34;;;12.29;100.00
79127;BME280;68528;48.814;8.904;2023-08-06T06:49:57;95591.72;;;12.38;100.00
79127;BME280;68528;48.814;8.904;2023-08-06T06:52:24;95587.78;;;12.36;100.00
79127;BME280;68528;48.814;8.904;2023-08-06T06:55:10;95588.22;;;12.31;100.00
79127;BME280;68528;48.814;8.904;2023-08-06T06:57:36;95590.94;;;12.27;100.00
79127;BME280;68528;48.814;8.904;2023-08-06T07:00:01;95585.47;;;12.34;100.00
79127;BME280;68528;48.814;8.904;2023-08-06T07:02:29;95587.78;;;12.36;100.00
79127;BME280;68528;48.814;8.904;2023-08-06T07:04:54;95580.75;;;12.35;100.00
79127;BME280;68528;48.814;8.904;2023-08-06T07:07:19;95586.22;;;12.38;100.00
79127;BME280;68528;48.814;8.904;2023-08-06T07:09:47;95583.09;;;12.36;100.00
79127;BME280;68528;48.814;8.904;2023-08-06T07:12:19;95576.44;;;12.23;100.00
79127;BME280;68528;48.814;8.904;2023-08-06T07:14:54;95576.06;;;12.28;100.00
79127;BME280;68528;48.814;8.904;2023-08-06T07:17:52;95585.47;;;12.31;100.00
79127;BME280;68528;48.814;8.904;2023-08-06T07:20:43;95591.34;;;12.36;100.00
79127;BME280;68528;48.814;8.904;2023-08-06T07:23:23;95600.75;;;12.39;100.00
79127;BME280;68528;48.814;8.904;2023-08-06T07:26:05;95588.59;;;12.36;100.00
79127;BME280;68528;48.814;8.904;2023-08-06T07:28:40;95589.00;;;12.35;100.00
79127;BME280;68528;48.814;8.904;2023-08-06T07:31:27;95603.09;;;12.47;100.00
79127;BME280;68528;48.814;8.904;2023-08-06T07:33:59;95612.88;;;12.48;100.00
79127;BME280;68528;48.814;8.904;2023-08-06T07:37:06;95611.72;;;12.46;100.00
79127;BME280;68528;48.814;8.904;2023-08-06T07:39:45;95605.84;;;12.33;100.00
79127;BME280;68528;48.814;8.904;2023-08-06T07:42:13;95621.94;;;12.45;100.00
79127;BME280;68528;48.814;8.904;2023-08-06T07:44:50;95606.63;;;12.44;100.00
79127;BME280;68528;48.814;8.904;2023-08-06T07:47:18;95604.63;;;12.63;100.00
79127;BME280;68528;48.814;8.904;2023-08-06T07:50:00;95602.63;;;12.74;100.00
79127;BME280;68528;48.814;8.904;2023-08-06T07:52:28;95592.41;;;12.81;100.00
79127;BME280;68528;48.814;8.904;2023-08-06T07:55:09;95592.38;;;12.85;100.00
79127;BME280;68528;48.814;8.904;2023-08-06T07:57:38;95590.75;;;13.01;100.00
79127;BME280;68528;48.814;8.904;2023-08-06T08:00:12;95591.53;;;13.09;100.00
79127;BME280;68528;48.814;8.904;2023-08-06T08:02:38;95579.75;;;13.01;99.90
79127;BME280;68528;48.814;8.904;2023-08-06T08:05:14;95598.56;;;13.24;100.00
79127;BME280;68528;48.814;8.904;2023-08-06T08:07:40;95607.94;;;13.30;98.62
79127;BME280;68528;48.814;8.904;2023-08-06T08:10:06;95598.84;;;13.40;99.64
79127;BME280;68528;48.814;8.904;2023-08-06T08:13:11;95604.22;;;13.61;98.54
79127;BME280;68528;48.814;8.904;2023-08-06T08:16:02;95590.78;;;13.74;96.17
79127;BME280;68528;48.814;8.904;2023-08-06T08:18:30;95592.78;;;13.70;96.73
79127;BME280;68528;48.814;8.904;2023-08-06T08:21:02;95592.41;;;13.68;96.41
79127;BME280;68528;48.814;8.904;2023-08-06T08:27:38;95590.69;;;13.84;95.96
79127;BME280;68528;48.814;8.904;2023-08-06T08:30:05;95587.88;;;13.95;96.44
79127;BME280;68528;48.814;8.904;2023-08-06T08:32:40;95597.53;;;14.13;96.94
79127;BME280;68528;48.814;8.904;2023-08-06T08:35:06;95593.25;;;14.09;94.36
79127;BME280;68528;48.814;8.904;2023-08-06T08:37:32;95598.75;;;14.12;95.24
79127;BME280;68528;48.814;8.904;2023-08-06T08:39:58;95591.25;;;14.16;90.29
79127;BME280;68528;48.814;8.904;2023-08-06T08:42:24;95597.66;;;13.99;97.53
79127;BME280;68528;48.814;8.904;2023-08-06T08:44:49;95593.13;;;13.75;98.15
79127;BME280;68528;48.814;8.904;2023-08-06T08:47:21;95593.25;;;13.54;99.14
79127;BME280;68528;48.814;8.904;2023-08-06T08:49:51;95596.06;;;13.47;100.00
79127;BME280;68528;48.814;8.904;2023-08-06T08:52:24;95596.03;;;13.51;100.00
79127;BME280;68528;48.814;8.904;2023-08-06T08:54:54;95596.41;;;13.53;99.99
79127;BME280;68528;48.814;8.904;2023-08-06T08:57:20;95594.38;;;13.60;100.00
79127;BME280;68528;48.814;8.904;2023-08-06T08:59:46;95597.97;;;13.57;100.00
79127;BME280;68528;48.814;8.904;2023-08-06T09:02:13;95598.34;;;13.59;100.00
79127;BME280;68528;48.814;8.904;2023-08-06T09:04:42;95599.84;;;13.67;100.00
79127;BME280;68528;48.814;8.904;2023-08-06T09:07:11;95610.44;;;13.72;100.00
79127;BME280;68528;48.814;8.904;2023-08-06T09:09:39;95606.19;;;13.64;100.00
79127;BME280;68528;48.814;8.904;2023-08-06T09:12:12;95604.63;;;13.56;99.81
79127;BME280;68528;48.814;8.904;2023-08-06T09:14:37;95608.97;;;13.57;100.00
79127;BME280;68528;48.814;8.904;2023-08-06T09:17:04;95611.34;;;13.55;100.00
79127;BME280;68528;48.814;8.904;2023-08-06T09:19:30;95618.00;;;13.54;100.00
79127;BME280;68528;48.814;8.904;2023-08-06T09:21:56;95627.47;;;13.53;100.00
79127;BME280;68528;48.814;8.904;2023-08-06T09:24:22;95618.78;;;13.58;100.00
79127;BME280;68528;48.814;8.904;2023-08-06T09:26:54;95622.69;;;13.64;100.00
79127;BME280;68528;48.814;8.904;2023-08-06T09:29:20;95623.78;;;13.74;98.45
79127;BME280;68528;48.814;8.904;2023-08-06T09:31:50;95621.81;;;13.78;98.80
79127;BME280;68528;48.814;8.904;2023-08-06T09:34:20;95621.84;;;13.74;98.78
79127;BME280;68528;48.814;8.904;2023-08-06T09:36:52;95624.63;;;13.67;97.22
79127;BME280;68528;48.814;8.904;2023-08-06T09:39:31;95620.63;;;13.75;96.13
79127;BME280;68528;48.814;8.904;2023-08-06T09:42:01;95630.81;;;13.82;96.83
79127;BME280;68528;48.814;8.904;2023-08-06T09:44:29;95630.47;;;13.76;98.06
79127;BME280;68528;48.814;8.904;2023-08-06T09:46:57;95629.38;;;13.63;97.39
79127;BME280;68528;48.814;8.904;2023-08-06T09:51:53;95627.78;;;13.66;99.61
79127;BME280;68528;48.814;8.904;2023-08-06T09:54:22;95633.63;;;13.75;97.44
79127;BME280;68528;48.814;8.904;2023-08-06T09:56:48;95631.63;;;13.75;98.16
79127;BME280;68528;48.814;8.904;2023-08-06T09:59:23;95638.97;;;13.99;99.30
79127;BME280;68528;48.814;8.904;2023-08-06T10:01:54;95640.38;;;14.18;97.76
79127;BME280;68528;48.814;8.904;2023-08-06T10:04:20;95643.22;;;14.07;97.63
79127;BME280;68528;48.814;8.904;2023-08-06T10:06:49;95653.91;;;13.98;97.69
79127;BME280;68528;48.814;8.904;2023-08-06T10:09:15;95653.50;;;13.96;97.67
79127;BME280;68528;48.814;8.904;2023-08-06T10:11:42;95655.50;;;13.92;99.38
79127;BME280;68528;48.814;8.904;2023-08-06T10:14:19;95645.28;;;13.93;98.84
79127;BME280;68528;48.814;8.904;2023-08-06T10:16:47;95652.28;;;14.08;96.69
79127;BME280;68528;48.814;8.904;2023-08-06T10:19:15;95645.50;;;14.16;99.63
79127;BME280;68528;48.814;8.904;2023-08-06T10:22:07;95660.06;;;14.13;97.41
79127;BME280;68528;48.814;8.904;2023-08-06T10:24:51;95657.25;;;14.24;98.32
79127;BME280;68528;48.814;8.904;2023-08-06T10:30:50;95651.22;;;14.43;96.89
79127;BME280;68528;48.814;8.904;2023-08-06T10:33:51;95652.50;;;14.31;89.59
79127;BME280;68528;48.814;8.904;2023-08-06T10:36:29;95659.19;;;14.27;91.14
79127;BME280;68528;48.814;8.904;2023-08-06T10:38:57;95683.78;;;13.96;92.38
79127;BME280;68528;48.814;8.904;2023-08-06T10:42:03;95669.03;;;13.69;89.64
79127;BME280;68528;48.814;8.904;2023-08-06T10:45:10;95687.91;;;13.67;95.66
79127;BME280;68528;48.814;8.904;2023-08-06T10:47:38;95691.94;;;13.45;96.56
79127;BME280;68528;48.814;8.904;2023-08-06T10:50:22;95678.66;;;13.26;92.72
79127;BME280;68528;48.814;8.904;2023-08-06T10:52:50;95695.94;;;13.26;90.68
79127;BME280;68528;48.814;8.904;2023-08-06T10:55:29;95694.41;;;13.22;92.37
79127;BME280;68528;48.814;8.904;2023-08-06T10:57:55;95696.38;;;13.07;92.46
79127;BME280;68528;48.814;8.904;2023-08-06T11:00:42;95693.25;;;13.09;89.60
79127;BME280;68528;48.814;8.904;2023-08-06T11:03:08;95699.91;;;13.08;95.70
79127;BME280;68528;48.814;8.904;2023-08-06T11:05:34;95703.03;;;13.17;93.62
79127;BME280;68528;48.814;8.904;2023-08-06T11:08:03;95718.75;;;13.13;91.71
79127;BME280;68528;48.814;8.904;2023-08-06T11:10:29;95724.25;;;13.09;95.15
79127;BME280;68528;48.814;8.904;2023-08-06T11:16:23;95702.13;;;13.48;96.74
79127;BME280;68528;48.814;8.904;2023-08-06T11:18:55;95699.28;;;13.69;88.60
79127;BME280;68528;48.814;8.904;2023-08-06T11:21:22;95721.84;;;13.36;94.09
79127;BME280;68528;48.814;8.904;2023-08-06T11:23:51;95731.31;;;13.14;93.58
79127;BME280;68528;48.814;8.904;2023-08-06T11:26:28;95717.97;;;12.84;93.66
79127;BME280;68528;48.814;8.904;2023-08-06T11:28:54;95718.81;;;12.67;93.78
79127;BME280;68528;48.814;8.904;2023-08-06T11:31:23;95722.72;;;12.84;90.67
79127;BME280;68528;48.814;8.904;2023-08-06T11:33:55;95733.28;;;12.89;93.25
79127;BME280;68528;48.814;8.904;2023-08-06T11:36:34;95736.06;;;12.68;94.37
79127;BME280;68528;48.814;8.904;2023-08-06T11:39:02;95752.16;;;12.73;92.48
79127;BME280;68528;48.814;8.904;2023-08-06T11:41:57;95742.75;;;12.59;90.87
79127;BME280;68528;48.814;8.904;2023-08-06T11:44:30;95750.59;;;12.57;92.80
79127;BME280;68528;48.814;8.904;2023-08-06T11:46:57;95757.25;;;12.49;93.93
79127;BME280;68528;48.814;8.904;2023-08-06T11:49:48;95748.59;;;12.30;95.38
79127;BME280;68528;48.814;8.904;2023-08-06T11:52:25;95760.00;;;12.28;94.58
79127;BME280;68528;48.814;8.904;2023-08-06T11:55:06;95771.75;;;12.32;93.82
79127;BME280;68528;48.814;8.904;2023-08-06T11:57:34;95767.81;;;12.26;95.60
79127;BME280;68528;48.814;8.904;2023-08-06T12:02:31;95765.09;;;12.30;94.16
79127;BME280;68528;48.814;8.904;2023-08-06T12:07:29;95774.53;;;12.53;97.00
79127;BME280;68528;48.814;8.904;2023-08-06T12:09:57;95788.63;;;12.59;90.47
79127;BME280;68528;48.814;8.904;2023-08-06T12:12:23;95788.63;;;12.48;94.36
79127;BME280;68528;48.814;8.904;2023-08-06T12:14:49;95783.56;;;12.54;94.23
79127;BME280;68528;48.814;8.904;2023-08-06T12:17:15;95784.75;;;12.56;95.85
79127;BME280;68528;48.814;8.904;2023-08-06T12:19:40;95783.94;;;12.52;94.14
79127;BME280;68528;48.814;8.904;2023-08-06T12:22:05;95798.84;;;12.66;92.41
79127;BME280;68528;48.814;8.904;2023-08-06T12:24:31;95781.59;;;12.69;93.03
79127;BME280;68528;48.814;8.904;2023-08-06T12:26:59;95780.78;;;12.82;94.82
79127;BME280;68528;48.814;8.904;2023-08-06T12:29:35;95787.88;;;13.11;86.39
79127;BME280;68528;48.814;8.904;2023-08-06T12:32:01;95783.09;;;13.47;85.46
79127;BME280;68528;48.814;8.904;2023-08-06T12:34:26;95778.34;;;13.62;87.55
79127;BME280;68528;48.814;8.904;2023-08-06T12:36:53;95772.75;;;13.79;90.94
79127;BME280;68528;48.814;8.904;2023-08-06T12:39:18;95793.13;;;13.99;88.64
79127;BME280;68528;48.814;8.904;2023-08-06T12:41:43;95795.34;;;14.22;87.37
79127;BME280;68528;48.814;8.904;2023-08-06T12:44:11;95797.41;;;14.04;84.03
79127;BME280;68528;48.814;8.904;2023-08-06T12:46:44;95797.84;;;13.95;86.86
79127;BME280;68528;48.814;8.904;2023-08-06T12:49:16;95801.78;;;13.98;86.60
79127;BME280;68528;48.814;8.904;2023-08-06T12:51:43;95818.56;;;14.25;80.13
79127;BME280;68528;48.814;8.904;2023-08-06T12:54:08;95789.78;;;14.40;83.97
79127;BME280;68528;48.814;8.904;2023-08-06T12:56:36;95802.66;;;14.57;87.45
79127;BME280;68528;48.814;8.904;2023-08-06T12:59:02;95793.16;;;14.65;88.00
79127;BME280;68528;48.814;8.904;2023-08-06T13:01:27;95808.00;;;14.78;88.01
79127;BME280;68528;48.814;8.904;2023-08-06T13:04:08;95790.72;;;14.74;85.96
79127;BME280;68528;48.814;8.904;2023-08-06T13:06:37;95813.06;;;14.83;80.31
79127;BME280;68528;48.814;8.904;2023-08-06T13:09:09;95810.69;;;14.88;75.50
79127;BME280;68528;48.814;8.904;2023-08-06T13:11:36;95811.75;;;14.47;82.23
79127;BME280;68528;48.814;8.904;2023-08-06T13:14:10;95819.63;;;14.45;84.08
79127;BME280;68528;48.814;8.904;2023-08-06T13:16:41;95825.94;;;14.45;78.40
79127;BME280;68528;48.814;8.904;2023-08-06T13:19:08;95826.81;;;14.25;84.03
79127;BME280;68528;48.814;8.904;2023-08-06T13:24:02;95841.81;;;14.13;79.42
79127;BME280;68528;48.814;8.904;2023-08-06T13:43:32;95849.06;;;13.54;86.15
79127;BME280;68528;48.814;8.904;2023-08-06T13:46:15;95830.63;;;13.44;83.93
79127;BME280;68528;48.814;8.904;2023-08-06T13:49:04;95832.59;;;13.47;84.74
79127;BME280;68528;48.814;8.904;2023-08-06T13:51:32;95847.53;;;13.46;85.56
79127;BME280;68528;48.814;8.904;2023-08-06T13:57:43;95871.09;;;13.58;84.63
79127;BME280;68528;48.814;8.904;2023-08-06T14:00:14;95861.56;;;13.90;82.47
79127;BME280;68528;48.814;8.904;2023-08-06T14:02:39;95855.97;;;14.11;88.44
79127;BME280;68528;48.814;8.904;2023-08-06T14:05:05;95844.44;;;14.45;80.69
79127;BME280;68528;48.814;8.904;2023-08-06T14:07:31;95852.28;;;14.50;79.04